createdAt,value
2019-01-15T00:01:00.450Z,100502.95
2019-01-15T00:03:29.630Z,100506.47
2019-01-15T00:05:58.884Z,100514.81
2019-01-15T00:08:27.993Z,100515.61
2019-01-15T00:10:57.199Z,100511.90
2019-01-15T00:13:26.360Z,100520.31
2019-01-15T00:15:55.575Z,100520.09
2019-01-15T00:18:24.761Z,100514.91
2019-01-15T00:20:54.244Z,100516.69
2019-01-15T00:23:23.417Z,100525.26
2019-01-15T00:25:52.627Z,100525.73
2019-01-15T00:28:21.801Z,100530.24
2019-01-15T00:30:50.979Z,100534.25
2019-01-15T00:33:20.156Z,100534.95
2019-01-15T00:35:49.358Z,100534.89
2019-01-15T00:38:18.798Z,100527.66
2019-01-15T00:40:48.061Z,100532.36
2019-01-15T00:43:17.515Z,100534.48
2019-01-15T00:45:46.649Z,100531.86
2019-01-15T00:48:15.827Z,100533.41
2019-01-15T00:51:04.205Z,100537.45
2019-01-15T00:53:33.657Z,100540.52
2019-01-15T00:56:02.844Z,100546.36
2019-01-15T00:58:32.024Z,100541.58
2019-01-15T01:01:01.236Z,100543.66
2019-01-15T01:03:30.404Z,100545.30
2019-01-15T01:05:59.598Z,100548.11
2019-01-15T01:08:28.795Z,100554.49
2019-01-15T01:10:57.966Z,100558.30
2019-01-15T01:13:27.142Z,100547.59
2019-01-15T01:15:56.576Z,100548.89
2019-01-15T01:18:25.786Z,100540.20
2019-01-15T01:20:54.966Z,100541.78
2019-01-15T01:23:24.153Z,100537.84
2019-01-15T01:25:53.352Z,100541.19
2019-01-15T01:28:22.811Z,100544.63
2019-01-15T01:30:52.633Z,100543.53
2019-01-15T01:33:21.823Z,100538.77
2019-01-15T01:35:51.040Z,100531.24
2019-01-15T01:38:20.519Z,100539.39
2019-01-15T01:40:49.719Z,100529.00
2019-01-15T01:43:18.917Z,100524.11
2019-01-15T01:45:48.073Z,100516.30
2019-01-15T01:48:17.276Z,100522.28
2019-01-15T01:50:46.458Z,100522.24
2019-01-15T01:53:15.803Z,100528.94
2019-01-15T01:55:44.967Z,100533.00
2019-01-15T01:58:14.174Z,100531.61
2019-01-15T02:00:43.436Z,100525.97
2019-01-15T02:03:12.695Z,100524.51
2019-01-15T02:05:41.912Z,100511.95
2019-01-15T02:08:11.116Z,100504.42
2019-01-15T02:10:40.277Z,100509.61
2019-01-15T02:13:09.477Z,100518.70
2019-01-15T02:15:38.665Z,100513.97
2019-01-15T02:18:07.867Z,100512.00
2019-01-15T02:20:37.034Z,100519.58
2019-01-15T02:23:06.488Z,100518.36
2019-01-15T02:25:35.649Z,100515.18
2019-01-15T02:28:04.839Z,100516.61
2019-01-15T02:30:34.336Z,100517.82
2019-01-15T02:33:03.637Z,100513.59
2019-01-15T02:35:32.803Z,100505.55
2019-01-15T02:38:02.271Z,100501.53
2019-01-15T02:40:38.787Z,100503.83
2019-01-15T02:43:07.983Z,100508.56
2019-01-15T02:45:37.161Z,100513.59
2019-01-15T02:48:06.361Z,100514.22
2019-01-15T02:50:35.536Z,100507.85
2019-01-15T02:53:04.746Z,100500.44
2019-01-15T02:55:33.925Z,100504.08
2019-01-15T02:58:03.161Z,100504.70
2019-01-15T03:00:32.360Z,100506.97
2019-01-15T03:03:01.583Z,100508.44
2019-01-15T03:05:30.781Z,100508.14
2019-01-15T03:08:00.038Z,100501.35
2019-01-15T03:10:29.511Z,100508.56
2019-01-15T03:12:58.717Z,100508.27
2019-01-15T03:15:27.894Z,100491.02
2019-01-15T03:17:57.126Z,100501.77
2019-01-15T03:20:26.277Z,100507.70
2019-01-15T03:22:55.463Z,100511.90
2019-01-15T03:25:24.650Z,100503.35
2019-01-15T03:27:53.819Z,100489.83
2019-01-15T03:30:43.075Z,100495.19
2019-01-15T03:33:12.305Z,100487.59
2019-01-15T03:35:41.527Z,100484.20
2019-01-15T03:38:10.948Z,100476.34
2019-01-15T03:40:40.147Z,100473.15
2019-01-15T03:43:09.311Z,100471.33
2019-01-15T03:45:38.580Z,100462.95
2019-01-15T03:48:07.753Z,100455.75
2019-01-15T03:50:36.958Z,100453.78
2019-01-15T03:53:06.487Z,100455.81
2019-01-15T03:55:35.969Z,100451.67
2019-01-15T03:58:05.276Z,100451.52
2019-01-15T04:00:35.081Z,100455.27
2019-01-15T04:03:04.390Z,100451.88
2019-01-15T04:05:33.583Z,100456.34
2019-01-15T04:08:03.216Z,100456.67
2019-01-15T04:10:32.401Z,100460.02
2019-01-15T04:13:01.575Z,100471.53
2019-01-15T04:15:30.746Z,100473.20
2019-01-15T04:17:59.922Z,100474.75
2019-01-15T04:20:29.118Z,100470.05
2019-01-15T04:22:58.289Z,100465.28
2019-01-15T04:25:27.480Z,100463.47
2019-01-15T04:27:56.701Z,100457.69
2019-01-15T04:30:26.348Z,100458.31
2019-01-15T04:32:55.525Z,100457.09
2019-01-15T04:35:24.830Z,100451.11
2019-01-15T04:37:53.951Z,100451.34
2019-01-15T04:40:23.384Z,100446.59
2019-01-15T04:42:52.779Z,100443.18
2019-01-15T04:45:23.445Z,100434.90
2019-01-15T04:47:52.597Z,100430.16
2019-01-15T04:50:21.785Z,100435.23
2019-01-15T04:55:59.828Z,100429.89
2019-01-15T04:58:28.999Z,100423.92
2019-01-15T05:00:58.231Z,100416.27
2019-01-15T05:03:27.383Z,100423.42
2019-01-15T05:05:56.561Z,100413.43
2019-01-15T05:08:25.998Z,100406.00
2019-01-15T05:10:55.190Z,100417.35
2019-01-15T05:13:27.514Z,100406.92
2019-01-15T05:15:55.540Z,100396.02
2019-01-15T05:18:24.695Z,100390.83
2019-01-15T05:20:53.928Z,100389.81
2019-01-15T05:23:23.364Z,100388.97
2019-01-15T05:25:52.554Z,100386.66
2019-01-15T05:28:21.711Z,100392.41
2019-01-15T05:30:50.905Z,100392.41
2019-01-15T05:33:20.106Z,100390.12
2019-01-15T05:35:49.276Z,100383.48
2019-01-15T05:38:18.478Z,100390.19
2019-01-15T05:40:47.650Z,100387.30
2019-01-15T05:43:16.846Z,100372.83
2019-01-15T05:48:38.075Z,100382.06
2019-01-15T05:51:26.188Z,100377.00
2019-01-15T05:53:55.383Z,100374.59
2019-01-15T05:56:24.577Z,100377.22
2019-01-15T05:58:53.735Z,100377.00
2019-01-15T06:01:22.935Z,100379.80
2019-01-15T06:03:52.131Z,100379.33
2019-01-15T06:06:21.296Z,100384.20
2019-01-15T06:08:50.478Z,100376.46
2019-01-15T06:11:19.649Z,100368.15
2019-01-15T06:13:49.135Z,100359.80
2019-01-15T06:16:18.305Z,100355.91
2019-01-15T06:18:47.489Z,100348.94
2019-01-15T06:21:16.686Z,100350.91
2019-01-15T06:23:46.160Z,100358.02
2019-01-15T06:26:15.327Z,100358.13
2019-01-15T06:31:21.213Z,100339.80
2019-01-15T06:33:50.419Z,100339.59
2019-01-15T06:36:19.854Z,100343.22
2019-01-15T06:38:49.046Z,100337.02
2019-01-15T06:41:18.497Z,100340.94
2019-01-15T06:43:50.205Z,100335.90
2019-01-15T06:46:19.294Z,100330.72
2019-01-15T06:48:49.480Z,100329.09
2019-01-15T06:51:18.688Z,100325.47
2019-01-15T06:53:47.914Z,100331.05
2019-01-15T06:56:17.543Z,100332.39
2019-01-15T06:58:46.719Z,100332.28
2019-01-15T07:01:15.917Z,100335.91
2019-01-15T07:03:45.146Z,100336.20
2019-01-15T07:06:14.330Z,100332.38
2019-01-15T07:08:43.576Z,100328.17
2019-01-15T07:11:31.957Z,100328.68
2019-01-15T07:14:01.154Z,100324.44
2019-01-15T07:16:30.856Z,100340.76
2019-01-15T07:19:00.053Z,100337.56
2019-01-15T07:21:29.405Z,100342.09
2019-01-15T07:23:58.658Z,100332.48
2019-01-15T07:26:27.819Z,100339.30
2019-01-15T07:28:57.037Z,100340.85
2019-01-15T07:31:26.217Z,100343.83
2019-01-15T07:33:55.399Z,100346.94
2019-01-15T07:36:24.592Z,100354.38
2019-01-15T07:38:54.111Z,100341.98
2019-01-15T07:41:23.309Z,100346.11
2019-01-15T07:43:52.518Z,100348.28
2019-01-15T07:46:21.677Z,100348.39
2019-01-15T07:48:50.917Z,100345.27
2019-01-15T07:51:20.305Z,100343.73
2019-01-15T07:53:49.758Z,100357.05
2019-01-15T07:56:18.909Z,100353.63
2019-01-15T07:58:48.100Z,100352.39
2019-01-15T08:04:07.144Z,100357.55
2019-01-15T08:06:36.305Z,100362.80
2019-01-15T08:09:09.245Z,100348.86
2019-01-15T08:11:38.411Z,100352.60
2019-01-15T08:14:11.948Z,100355.68
2019-01-15T08:16:38.751Z,100349.17
2019-01-15T08:19:07.946Z,100349.46
2019-01-15T08:21:37.104Z,100350.52
2019-01-15T08:24:06.283Z,100358.45
2019-01-15T08:26:35.507Z,100359.78
2019-01-15T08:29:04.674Z,100357.09
2019-01-15T08:31:33.929Z,100360.29
2019-01-15T08:34:03.103Z,100351.92
2019-01-15T08:36:32.297Z,100350.06
2019-01-15T08:39:01.469Z,100344.98
2019-01-15T08:41:30.671Z,100337.34
2019-01-15T08:43:59.830Z,100339.91
2019-01-15T08:46:29.010Z,100342.67
2019-01-15T08:48:58.178Z,100348.13
2019-01-15T08:51:27.452Z,100357.27
2019-01-15T08:53:57.080Z,100349.84
2019-01-15T08:56:26.342Z,100345.89
2019-01-15T08:58:55.800Z,100348.45
2019-01-15T09:01:25.041Z,100346.91
2019-01-15T09:03:54.242Z,100344.09
2019-01-15T09:06:23.426Z,100344.06
2019-01-15T09:08:52.591Z,100344.44
2019-01-15T09:11:22.119Z,100341.20
2019-01-15T09:13:51.413Z,100341.33
2019-01-15T09:16:21.068Z,100341.42
2019-01-15T09:29:48.238Z,100327.20
2019-01-15T09:32:17.438Z,100332.33
2019-01-15T09:34:46.641Z,100340.95
2019-01-15T09:37:15.928Z,100337.02
2019-01-15T09:39:45.076Z,100343.37
2019-01-15T09:42:14.258Z,100347.12
2019-01-15T09:52:47.440Z,100352.78
2019-01-15T09:55:16.610Z,100346.98
2019-01-15T09:57:46.123Z,100358.13
2019-01-15T10:00:15.921Z,100360.60
2019-01-15T10:02:45.996Z,100354.84
2019-01-15T10:05:15.745Z,100359.13
2019-01-15T10:07:47.333Z,100361.16
2019-01-15T10:12:55.685Z,100361.16
2019-01-15T10:15:24.853Z,100367.83
2019-01-15T10:20:49.085Z,100360.93
2019-01-15T10:23:19.493Z,100357.48
2019-01-15T10:28:38.547Z,100361.97
2019-01-15T10:31:45.992Z,100351.34
2019-01-15T10:34:20.606Z,100358.67
2019-01-15T10:36:48.070Z,100352.67
2019-01-15T10:39:17.276Z,100352.66
2019-01-15T10:41:46.450Z,100348.36
2019-01-15T10:44:34.715Z,100354.91
2019-01-15T10:47:03.923Z,100358.55
2019-01-15T10:49:33.142Z,100351.58
2019-01-15T10:52:02.307Z,100360.66
2019-01-15T10:54:31.761Z,100362.37
2019-01-15T10:57:00.909Z,100362.33
2019-01-15T10:59:30.098Z,100365.03
2019-01-15T11:01:59.294Z,100334.38
2019-01-15T11:04:28.540Z,100353.61
2019-01-15T11:06:57.723Z,100353.41
2019-01-15T11:09:26.919Z,100350.03
2019-01-15T11:11:56.081Z,100316.23
2019-01-15T11:14:25.824Z,100339.16
2019-01-15T11:16:54.971Z,100341.34
2019-01-15T11:19:24.476Z,100338.09
2019-01-15T11:21:53.906Z,100333.74
2019-01-15T11:24:23.657Z,100337.03
2019-01-15T11:26:52.828Z,100314.02
2019-01-15T11:29:22.293Z,100319.73
2019-01-15T11:31:52.702Z,100329.31
2019-01-15T11:34:22.148Z,100327.76
2019-01-15T11:36:51.359Z,100320.42
2019-01-15T11:39:20.533Z,100314.12
2019-01-15T11:41:49.983Z,100321.63
2019-01-15T11:44:19.616Z,100315.78
2019-01-15T11:46:49.068Z,100317.24
2019-01-15T11:49:18.261Z,100308.28
2019-01-15T11:51:47.689Z,100308.04
2019-01-15T11:54:16.869Z,100313.95
2019-01-15T11:56:46.314Z,100316.41
2019-01-15T12:02:10.862Z,100318.48
2019-01-15T12:04:59.016Z,100305.86
2019-01-15T12:07:47.133Z,100303.64
2019-01-15T12:13:31.755Z,100299.28
2019-01-15T12:16:20.157Z,100296.34
2019-01-15T12:19:08.328Z,100295.82
2019-01-15T12:21:57.011Z,100294.02
2019-01-15T12:24:43.431Z,100288.80
2019-01-15T12:27:31.793Z,100293.88
2019-01-15T12:30:20.199Z,100273.81
2019-01-15T12:33:08.316Z,100287.52
2019-01-15T12:35:56.720Z,100285.81
2019-01-15T12:38:45.111Z,100292.20
2019-01-15T12:41:33.527Z,100276.98
2019-01-15T12:44:21.642Z,100291.47
2019-01-15T12:47:10.053Z,100292.74
2019-01-15T12:49:58.164Z,100294.44
2019-01-15T12:52:46.627Z,100289.28
2019-01-15T12:58:25.370Z,100283.39
2019-01-15T13:01:13.793Z,100288.78
2019-01-15T13:03:53.229Z,100286.53
2019-01-15T13:06:41.339Z,100273.88
2019-01-15T13:09:29.991Z,100275.81
2019-01-15T13:12:18.529Z,100260.08
2019-01-15T13:15:06.946Z,100263.38
2019-01-15T13:17:55.114Z,100252.89
2019-01-15T13:20:43.230Z,100247.64
2019-01-15T13:23:31.371Z,100261.96
2019-01-15T13:26:19.512Z,100261.89
2019-01-15T13:29:07.646Z,100248.78
2019-01-15T13:31:56.632Z,100236.71
2019-01-15T13:34:38.218Z,100237.75
2019-01-15T13:37:27.529Z,100235.05
2019-01-15T13:40:20.996Z,100219.66
2019-01-15T13:43:01.776Z,100233.12
2019-01-15T13:45:50.844Z,100227.20
2019-01-15T13:48:39.015Z,100233.12
2019-01-15T13:51:27.202Z,100215.47
2019-01-15T13:54:14.218Z,100221.91
2019-01-15T13:57:02.346Z,100217.10
2019-01-15T13:59:50.519Z,100218.00
2019-01-15T14:02:38.923Z,100214.99
2019-01-15T14:05:27.673Z,100216.34
2019-01-15T14:08:15.831Z,100206.45
2019-01-15T14:11:04.344Z,100189.17
2019-01-15T14:13:52.507Z,100193.73
2019-01-15T14:16:40.616Z,100206.39
2019-01-15T14:19:28.763Z,100199.72
2019-01-15T14:22:16.870Z,100197.84
2019-01-15T14:24:58.393Z,100197.26
2019-01-15T14:27:44.671Z,100193.73
2019-01-15T14:30:40.664Z,100195.43
2019-01-15T14:33:29.047Z,100198.61
2019-01-15T14:36:17.181Z,100197.84
2019-01-15T14:39:05.314Z,100196.43
2019-01-15T14:41:54.506Z,100196.12
2019-01-15T14:44:43.017Z,100196.29
2019-01-15T14:47:31.804Z,100192.91
2019-01-15T14:50:20.055Z,100182.19
2019-01-15T14:53:10.834Z,100146.22
2019-01-15T14:55:59.414Z,100181.73
2019-01-15T15:01:44.942Z,100189.97
2019-01-15T15:04:33.090Z,100179.48
2019-01-15T15:07:21.529Z,100183.81
2019-01-15T15:10:21.542Z,100171.78
2019-01-15T15:13:00.287Z,100178.24
2019-01-15T15:15:48.764Z,100192.69
2019-01-15T15:18:37.170Z,100185.52
2019-01-15T15:21:25.627Z,100178.27
2019-01-15T15:27:08.333Z,100192.44
2019-01-15T15:29:56.814Z,100193.47
2019-01-15T15:32:45.357Z,100193.63
2019-01-15T15:35:34.265Z,100198.44
2019-01-15T15:38:16.802Z,100194.72
2019-01-15T15:41:26.879Z,100193.06
2019-01-15T15:44:07.753Z,100190.45
2019-01-15T15:46:56.626Z,100192.11
2019-01-15T15:49:45.024Z,100197.11
2019-01-15T15:55:50.800Z,100186.09
2019-01-15T15:58:38.971Z,100186.33
2019-01-15T16:01:27.761Z,100184.55
2019-01-15T16:04:16.177Z,100188.44
2019-01-15T16:07:01.147Z,100189.19
2019-01-15T16:09:49.292Z,100170.66
2019-01-15T16:12:37.735Z,100184.77
2019-01-15T16:15:27.148Z,100181.11
2019-01-15T16:18:15.848Z,100187.09
2019-01-15T16:21:24.654Z,100188.02
2019-01-15T16:29:29.746Z,100179.94
2019-01-15T16:32:36.991Z,100175.06
2019-01-15T16:35:45.974Z,100176.48
2019-01-15T16:58:02.004Z,100173.26
2019-01-15T17:00:50.172Z,100176.47
2019-01-15T17:03:38.586Z,100178.86
2019-01-15T17:11:51.370Z,100169.22
2019-01-15T17:14:36.591Z,100172.12
2019-01-15T17:28:30.273Z,100175.13
2019-01-15T17:34:09.164Z,100172.20
2019-01-15T18:07:44.465Z,100165.83
2019-01-15T18:16:11.503Z,100166.27
2019-01-15T18:25:16.367Z,100164.48
2019-01-15T18:28:05.187Z,100168.21
2019-01-15T19:01:22.821Z,100150.00
2019-01-15T19:04:02.431Z,100150.83
2019-01-15T19:59:49.129Z,100122.31
2019-01-15T20:02:37.281Z,100127.26
2019-01-15T20:05:26.082Z,100135.34
2019-01-15T20:08:14.218Z,100124.56
2019-01-15T20:11:02.399Z,100123.30
2019-01-15T20:19:54.256Z,100121.29
2019-01-15T20:25:37.457Z,100123.39
2019-01-15T20:28:25.904Z,100115.91
2019-01-15T20:31:14.353Z,100122.32
2019-01-15T20:34:02.846Z,100121.73
2019-01-15T20:36:51.285Z,100124.66
2019-01-15T20:39:39.716Z,100130.56
2019-01-15T20:42:28.490Z,100129.05
2019-01-15T20:45:16.885Z,100124.93
2019-01-15T20:48:05.859Z,100127.19
2019-01-15T20:50:54.453Z,100123.91
2019-01-15T20:53:42.592Z,100121.88
2019-01-15T20:56:50.097Z,100122.20
2019-01-15T20:59:38.484Z,100117.02
2019-01-15T21:02:33.075Z,100116.73
2019-01-15T21:05:21.776Z,100117.56
2019-01-15T21:08:09.921Z,100122.47
2019-01-15T21:38:41.595Z,100094.44
2019-01-15T22:02:35.245Z,100082.14
2019-01-15T22:05:44.555Z,100083.72
2019-01-15T22:08:32.663Z,100077.58
2019-01-15T22:11:21.186Z,100081.90
2019-01-15T22:14:09.330Z,100077.27
2019-01-15T22:16:57.446Z,100075.05
2019-01-15T22:19:45.584Z,100070.77
2019-01-15T22:22:34.102Z,100068.16
2019-01-15T22:25:16.458Z,100062.52
2019-01-15T22:28:04.851Z,100066.05
2019-01-15T22:30:52.997Z,100062.38
2019-01-15T22:33:41.732Z,100068.00
2019-01-15T22:36:30.133Z,100060.84
2019-01-15T22:39:18.229Z,100060.92
2019-01-15T22:42:06.369Z,100059.34
2019-01-15T22:44:54.473Z,100056.47
2019-01-15T22:47:42.612Z,100056.90
2019-01-15T22:50:31.107Z,100054.96
2019-01-15T22:53:19.281Z,100055.27
2019-01-15T22:56:07.687Z,100044.05
2019-01-15T22:58:46.085Z,100041.88
2019-01-15T23:01:57.204Z,100033.80
2019-01-15T23:04:45.593Z,100033.63
2019-01-15T23:07:33.733Z,100036.67
2019-01-15T23:10:22.320Z,100032.20
2019-01-15T23:13:10.737Z,100033.48
2019-01-15T23:15:46.659Z,100021.27
2019-01-15T23:18:34.829Z,100019.91
2019-01-15T23:21:23.317Z,100020.23
2019-01-15T23:24:05.851Z,100017.53
2019-01-15T23:26:53.988Z,100015.95
2019-01-15T23:29:42.130Z,100019.16
2019-01-15T23:32:30.531Z,100014.42
2019-01-15T23:35:19.333Z,100014.36
2019-01-15T23:38:07.445Z,100015.84
2019-01-15T23:40:55.582Z,100019.43
2019-01-15T23:43:43.800Z,100009.94
2019-01-15T23:46:32.170Z,100010.07
2019-01-15T23:49:20.899Z,100005.66
2019-01-15T23:52:09.659Z,100003.06
2019-01-15T23:54:57.797Z,100008.97
2019-01-15T23:57:45.899Z,100005.55
